Time;durP1;ratioP1;P1;durP2;ratioP2;P2;SDS_P1;SDS_P2;PMS_P1;PMS_P2;Temp;Humidity;BMP_temperature;BMP_pressure;BME280_temperature;BME280_humidity;BME280_pressure;Samples;Min_cycle;Max_cycle;Signal;HPM_P1;HPM_P2
2023/08/29 00:00:26;;;;;;;5.30;3.08;;;12.60;99.90;;;;;;5071502;28;20048;-66
2023/08/29 00:02:52;;;;;;;5.32;3.20;;;12.60;99.90;;;;;;5070291;28;20051;-66
2023/08/29 00:05:19;;;;;;;6.30;3.35;;;12.60;99.90;;;;;;5071630;28;20179;-66
2023/08/29 00:07:45;;;;;;;5.00;3.00;;;12.60;99.90;;;;;;5071761;28;20048;-66
2023/08/29 00:10:11;;;;;;;5.90;2.95;;;12.60;99.90;;;;;;5070666;28;20051;-66
2023/08/29 00:12:37;;;;;;;7.57;3.83;;;12.60;99.90;;;;;;5071225;28;20125;-66
2023/08/29 00:15:06;;;;;;;6.05;2.97;;;12.60;99.90;;;;;;5071582;28;20079;-66
2023/08/29 00:17:32;;;;;;;5.25;3.30;;;12.60;99.90;;;;;;5070565;28;20420;-66
2023/08/29 00:19:57;;;;;;;6.78;3.00;;;12.60;99.90;;;;;;5072977;28;20055;-66
2023/08/29 00:22:23;;;;;;;5.72;3.28;;;12.60;99.90;;;;;;5071048;28;20063;-66
2023/08/29 00:24:52;;;;;;;5.15;2.90;;;12.60;99.90;;;;;;5070549;28;20060;-66
2023/08/29 00:27:19;;;;;;;5.80;3.13;;;12.60;99.90;;;;;;5071178;28;20051;-66
2023/08/29 00:29:45;;;;;;;5.72;3.28;;;12.60;99.90;;;;;;5071183;28;20075;-66
2023/08/29 00:32:11;;;;;;;5.53;3.10;;;12.50;99.90;;;;;;5070342;28;20121;-66
2023/08/29 00:34:37;;;;;;;5.90;3.58;;;12.50;99.90;;;;;;5070845;28;20485;-66
2023/08/29 00:37:03;;;;;;;6.53;3.50;;;12.50;99.90;;;;;;5072636;28;20040;-66
2023/08/29 00:39:28;;;;;;;6.30;3.45;;;12.50;99.90;;;;;;5053346;28;20036;-66
2023/08/29 00:41:54;;;;;;;4.75;2.70;;;12.50;99.90;;;;;;5071152;28;20441;-66
2023/08/29 00:44:21;;;;;;;9.48;3.35;;;12.40;99.90;;;;;;5071379;28;20044;-66
2023/08/29 00:46:46;;;;;;;5.68;3.10;;;12.40;99.90;;;;;;5070792;28;20036;-66
2023/08/29 00:49:17;;;;;;;5.05;2.95;;;12.40;99.90;;;;;;5071962;28;20041;-66
2023/08/29 00:51:43;;;;;;;5.88;3.38;;;12.40;99.90;;;;;;5069755;28;20040;-66
2023/08/29 00:54:09;;;;;;;5.90;3.30;;;12.30;99.90;;;;;;5077300;28;20055;-66
2023/08/29 00:56:39;;;;;;;6.35;2.78;;;12.30;99.90;;;;;;5074221;28;20374;-66
2023/08/29 00:59:06;;;;;;;5.30;3.00;;;12.30;99.90;;;;;;5073469;28;20051;-66
2023/08/29 01:01:34;;;;;;;6.30;3.13;;;12.20;99.90;;;;;;5091864;28;20044;-66
2023/08/29 01:04:00;;;;;;;9.35;3.15;;;12.20;99.90;;;;;;5092430;28;20035;-66
2023/08/29 01:06:26;;;;;;;5.47;2.97;;;12.30;99.90;;;;;;5073464;28;20404;-66
2023/08/29 01:08:52;;;;;;;5.40;3.15;;;12.20;99.90;;;;;;5057605;28;20127;-66
2023/08/29 01:11:20;;;;;;;6.30;3.08;;;12.20;99.90;;;;;;5092154;28;20124;-66
2023/08/29 01:13:49;;;;;;;4.63;2.83;;;12.20;99.90;;;;;;5070302;28;20039;-66
2023/08/29 01:16:21;;;;;;;6.32;4.07;;;12.20;99.90;;;;;;5073000;28;20071;-66
2023/08/29 01:18:47;;;;;;;6.90;3.47;;;12.20;99.90;;;;;;5073905;28;20036;-66
2023/08/29 01:21:55;;;;;;;6.03;3.17;;;12.10;99.90;;;;;;5056222;28;20087;-66
2023/08/29 01:24:30;;;;;;;5.35;3.17;;;12.10;99.90;;;;;;5061857;28;20040;-66
2023/08/29 01:26:57;;;;;;;7.47;3.53;;;12.10;99.90;;;;;;5073268;28;20092;-66
2023/08/29 01:29:24;;;;;;;5.95;3.40;;;12.10;99.90;;;;;;5073578;28;20054;-66
2023/08/29 01:31:51;;;;;;;6.00;3.17;;;12.10;99.90;;;;;;5073996;28;20039;-67
2023/08/29 01:34:17;;;;;;;5.72;3.33;;;12.10;99.90;;;;;;5056418;28;20036;-66
2023/08/29 01:36:43;;;;;;;5.55;3.30;;;12.00;99.90;;;;;;5074074;28;20059;-66
2023/08/29 01:39:09;;;;;;;6.43;4.07;;;12.00;99.90;;;;;;5073650;28;20093;-66
2023/08/29 01:41:35;;;;;;;5.68;3.50;;;12.10;99.90;;;;;;5091306;28;20035;-66
2023/08/29 01:44:05;;;;;;;5.85;3.35;;;12.00;99.90;;;;;;5091966;28;20366;-66
2023/08/29 01:46:31;;;;;;;9.63;3.60;;;12.00;99.90;;;;;;5091861;28;20036;-66
2023/08/29 01:49:01;;;;;;;5.78;3.08;;;12.00;99.90;;;;;;5073166;28;20032;-66
2023/08/29 01:51:27;;;;;;;5.80;2.88;;;12.00;99.90;;;;;;5073662;28;20048;-66
2023/08/29 01:53:53;;;;;;;6.50;3.63;;;12.00;99.90;;;;;;5073604;28;20056;-66
2023/08/29 01:56:21;;;;;;;5.72;3.47;;;12.00;99.90;;;;;;5072735;28;20529;-66
2023/08/29 01:58:48;;;;;;;7.13;3.92;;;11.90;99.90;;;;;;5073406;28;20481;-66
2023/08/29 02:01:14;;;;;;;7.38;3.83;;;12.00;99.90;;;;;;5091462;28;20048;-66
2023/08/29 02:03:40;;;;;;;5.95;2.80;;;11.90;99.90;;;;;;5072845;28;20044;-66
2023/08/29 02:06:06;;;;;;;5.50;3.65;;;11.90;99.90;;;;;;5057092;28;20048;-66
2023/08/29 02:08:32;;;;;;;5.75;3.22;;;11.90;99.90;;;;;;5073678;28;20087;-66
2023/08/29 02:10:58;;;;;;;6.18;3.10;;;11.90;99.90;;;;;;5090959;28;20040;-66
2023/08/29 02:13:23;;;;;;;6.50;2.88;;;12.00;99.90;;;;;;5056714;28;20094;-65
2023/08/29 02:15:49;;;;;;;5.75;3.03;;;11.90;99.90;;;;;;5072920;28;20044;-64
2023/08/29 02:18:15;;;;;;;6.15;2.97;;;11.90;99.90;;;;;;5056628;28;20063;-64
2023/08/29 02:20:41;;;;;;;5.00;2.97;;;11.90;99.90;;;;;;5091587;28;20043;-64
2023/08/29 02:23:06;;;;;;;5.63;3.13;;;11.90;99.90;;;;;;5056153;28;20051;-64
2023/08/29 02:25:32;;;;;;;5.40;3.28;;;11.90;99.90;;;;;;5076074;28;20056;-64
2023/08/29 02:27:58;;;;;;;5.35;2.92;;;11.90;99.90;;;;;;5095179;28;20024;-64
2023/08/29 02:30:24;;;;;;;5.00;3.00;;;11.90;99.90;;;;;;5094374;28;20044;-65
2023/08/29 02:32:49;;;;;;;5.38;3.10;;;11.90;99.90;;;;;;5076964;28;20048;-65
2023/08/29 02:35:15;;;;;;;5.60;3.00;;;11.80;99.90;;;;;;5077028;28;20036;-64
2023/08/29 02:37:41;;;;;;;5.68;3.08;;;11.80;99.90;;;;;;5075898;28;20392;-64
2023/08/29 02:40:08;;;;;;;5.43;3.03;;;11.80;99.90;;;;;;5077333;28;20136;-65
2023/08/29 02:42:34;;;;;;;5.63;2.90;;;11.80;99.90;;;;;;5076600;28;20396;-65
2023/08/29 02:45:00;;;;;;;4.85;2.88;;;11.80;99.90;;;;;;5076169;28;20061;-66
2023/08/29 02:47:26;;;;;;;5.03;3.05;;;11.70;99.90;;;;;;5076596;28;20127;-66
2023/08/29 02:49:52;;;;;;;5.60;2.97;;;11.70;99.90;;;;;;5076436;28;20051;-66
2023/08/29 02:52:18;;;;;;;5.45;2.92;;;11.70;99.90;;;;;;5075552;28;20036;-66
2023/08/29 02:54:44;;;;;;;4.72;2.58;;;11.80;99.90;;;;;;5076148;28;20055;-66
2023/08/29 02:57:10;;;;;;;5.20;3.28;;;11.70;99.90;;;;;;5094427;28;20133;-66
2023/08/29 02:59:35;;;;;;;6.13;3.10;;;11.70;99.90;;;;;;5058866;28;20053;-66
2023/08/29 03:02:03;;;;;;;5.03;2.47;;;11.60;99.90;;;;;;5094859;28;20036;-66
2023/08/29 03:04:30;;;;;;;7.53;3.25;;;11.60;99.90;;;;;;5059335;28;20469;-66
2023/08/29 03:06:55;;;;;;;5.97;3.08;;;11.60;99.90;;;;;;5059410;28;20463;-66
2023/08/29 03:09:21;;;;;;;4.97;2.88;;;11.60;99.90;;;;;;5076403;28;20127;-66
2023/08/29 03:11:47;;;;;;;5.70;2.92;;;11.60;99.90;;;;;;5094185;28;20051;-66
2023/08/29 03:14:13;;;;;;;4.93;2.80;;;11.50;99.90;;;;;;5093628;28;20044;-64
2023/08/29 03:16:39;;;;;;;4.90;2.70;;;11.60;99.90;;;;;;5059743;28;20036;-64
2023/08/29 03:19:05;;;;;;;4.80;2.72;;;11.50;99.90;;;;;;5059247;28;20039;-64
2023/08/29 03:21:30;;;;;;;5.45;2.40;;;11.50;99.90;;;;;;5076015;28;20039;-64
2023/08/29 03:23:56;;;;;;;4.70;2.67;;;11.50;99.90;;;;;;5076441;28;20119;-64
2023/08/29 03:26:22;;;;;;;5.57;2.58;;;11.60;99.90;;;;;;5074774;28;20092;-64
2023/08/29 03:28:48;;;;;;;5.95;3.30;;;11.50;99.90;;;;;;5058933;28;20044;-64
2023/08/29 03:31:16;;;;;;;5.40;2.63;;;11.50;99.90;;;;;;5075658;28;20044;-64
2023/08/29 03:33:43;;;;;;;5.25;2.88;;;11.50;99.90;;;;;;5093424;28;20036;-64
2023/08/29 03:36:09;;;;;;;5.00;2.85;;;11.50;99.90;;;;;;5093155;28;20052;-64
2023/08/29 03:38:36;;;;;;;4.70;2.83;;;11.40;99.90;;;;;;5075592;28;20036;-64
2023/08/29 03:41:03;;;;;;;5.45;2.95;;;11.40;99.90;;;;;;5075048;28;20097;-64
2023/08/29 03:43:30;;;;;;;5.88;2.97;;;11.40;99.90;;;;;;5075369;28;20112;-64
2023/08/29 03:46:03;;;;;;;5.50;2.97;;;11.50;99.90;;;;;;5075551;28;20040;-64
2023/08/29 03:48:30;;;;;;;6.00;2.85;;;11.40;99.90;;;;;;5074349;28;20051;-64
2023/08/29 03:50:58;;;;;;;5.82;2.70;;;11.40;99.90;;;;;;5093769;28;20040;-64
2023/08/29 03:53:24;;;;;;;4.75;2.40;;;11.40;99.90;;;;;;5093428;28;20089;-64
2023/08/29 03:55:50;;;;;;;5.25;2.90;;;11.40;99.90;;;;;;5074612;28;20101;-64
2023/08/29 03:58:16;;;;;;;5.75;3.20;;;11.40;99.90;;;;;;5093578;28;20028;-64
2023/08/29 04:00:42;;;;;;;6.95;2.65;;;11.40;99.90;;;;;;5075559;28;20042;-64
2023/08/29 04:03:08;;;;;;;6.45;2.90;;;11.30;99.90;;;;;;5093167;28;20097;-64
2023/08/29 04:05:37;;;;;;;5.93;3.45;;;11.30;99.90;;;;;;5075792;28;20087;-64
2023/08/29 04:08:07;;;;;;;5.90;2.75;;;11.30;99.90;;;;;;5093304;28;20040;-65
2023/08/29 04:10:37;;;;;;;7.13;3.05;;;11.30;99.90;;;;;;5074148;28;20139;-64
2023/08/29 04:13:03;;;;;;;5.47;3.25;;;11.30;99.90;;;;;;5075185;28;20566;-64
2023/08/29 04:15:29;;;;;;;4.93;2.60;;;11.30;99.90;;;;;;5073760;28;20040;-64
2023/08/29 04:17:54;;;;;;;5.70;3.40;;;11.30;99.90;;;;;;5093198;28;20036;-64
2023/08/29 04:20:21;;;;;;;6.45;3.78;;;11.30;99.90;;;;;;5074792;28;20040;-64
2023/08/29 04:22:47;;;;;;;8.23;2.92;;;11.30;99.90;;;;;;5074085;28;20126;-64
2023/08/29 04:25:12;;;;;;;6.38;4.43;;;11.30;99.90;;;;;;5092874;28;20044;-64
2023/08/29 04:27:39;;;;;;;5.68;4.05;;;11.40;99.90;;;;;;5074342;28;20477;-64
2023/08/29 04:30:05;;;;;;;5.97;4.00;;;11.30;99.90;;;;;;5092416;28;20083;-64
2023/08/29 04:32:34;;;;;;;4.68;3.25;;;11.30;99.90;;;;;;5092464;28;20083;-64
2023/08/29 04:35:00;;;;;;;6.25;3.60;;;11.30;99.90;;;;;;5074956;28;20036;-64
2023/08/29 04:37:26;;;;;;;8.98;4.10;;;11.30;99.90;;;;;;5073238;28;20040;-64
2023/08/29 04:39:51;;;;;;;6.53;4.07;;;11.20;99.90;;;;;;5092712;28;20145;-64
2023/08/29 04:42:17;;;;;;;6.38;4.43;;;11.20;99.90;;;;;;5056064;28;20047;-64
2023/08/29 04:44:43;;;;;;;6.70;5.13;;;11.30;99.90;;;;;;5073705;28;20052;-64
2023/08/29 04:47:09;;;;;;;7.03;4.47;;;11.20;99.90;;;;;;5092549;28;20508;-64
2023/08/29 04:49:35;;;;;;;5.45;3.63;;;11.20;99.90;;;;;;5074434;28;20040;-64
2023/08/29 04:52:01;;;;;;;6.90;4.60;;;11.20;99.90;;;;;;5073775;28;20044;-64
2023/08/29 04:54:26;;;;;;;5.68;4.20;;;11.20;99.90;;;;;;5070720;28;20049;-64
2023/08/29 04:56:52;;;;;;;6.72;5.50;;;11.20;99.90;;;;;;5071073;28;20108;-64
2023/08/29 04:59:18;;;;;;;6.97;4.43;;;11.20;99.90;;;;;;5070443;28;20029;-64
2023/08/29 05:01:44;;;;;;;7.00;3.90;;;11.20;99.90;;;;;;5072225;28;20032;-64
2023/08/29 05:04:10;;;;;;;5.68;3.42;;;11.10;99.90;;;;;;5054194;28;20072;-64
2023/08/29 05:06:36;;;;;;;5.80;3.72;;;11.10;99.90;;;;;;5069781;28;20440;-64
2023/08/29 05:09:03;;;;;;;6.68;3.47;;;11.10;99.90;;;;;;5071422;28;20040;-64
2023/08/29 05:11:29;;;;;;;5.55;3.70;;;11.10;99.90;;;;;;5053145;28;20064;-64
2023/08/29 05:13:55;;;;;;;6.18;3.45;;;11.10;99.90;;;;;;5054247;28;20098;-64
2023/08/29 05:16:20;;;;;;;6.20;3.33;;;11.10;99.90;;;;;;5070614;28;20036;-64
2023/08/29 05:18:46;;;;;;;8.30;3.40;;;11.20;99.90;;;;;;5070049;28;20040;-64
2023/08/29 05:21:12;;;;;;;5.85;3.38;;;11.20;99.90;;;;;;5070716;28;20048;-64
2023/08/29 05:23:37;;;;;;;5.57;3.38;;;11.30;99.90;;;;;;5072108;28;20079;-64
2023/08/29 05:26:04;;;;;;;10.43;3.80;;;11.30;99.90;;;;;;5069979;28;20044;-64
2023/08/29 05:28:30;;;;;;;17.33;13.82;;;11.30;99.90;;;;;;5070303;28;20045;-64
2023/08/29 05:30:55;;;;;;;49.15;35.78;;;11.30;99.90;;;;;;5070681;28;20121;-64
2023/08/29 05:33:21;;;;;;;14.77;10.10;;;11.40;99.90;;;;;;5070883;28;20039;-64
2023/08/29 05:35:47;;;;;;;13.23;11.85;;;11.40;99.90;;;;;;5070450;28;20039;-66
2023/08/29 05:38:12;;;;;;;9.40;7.50;;;11.50;99.90;;;;;;5071679;28;20044;-66
2023/08/29 05:40:38;;;;;;;11.02;7.25;;;11.50;99.90;;;;;;5071080;28;20470;-66
2023/08/29 05:43:04;;;;;;;8.32;5.55;;;11.60;99.90;;;;;;5054595;28;20179;-66
2023/08/29 05:45:30;;;;;;;6.45;4.55;;;11.70;99.90;;;;;;5070769;28;20040;-66
2023/08/29 05:47:55;;;;;;;6.78;4.78;;;11.80;99.90;;;;;;5070205;28;20040;-66
2023/08/29 05:50:21;;;;;;;9.48;4.80;;;11.80;99.90;;;;;;5070171;28;20119;-66
2023/08/29 05:52:47;;;;;;;8.82;5.47;;;11.90;99.90;;;;;;5070739;28;20036;-66
2023/08/29 05:55:12;;;;;;;10.13;5.63;;;12.00;99.90;;;;;;5084641;28;20079;-66
2023/08/29 05:57:38;;;;;;;9.38;5.15;;;12.10;99.90;;;;;;5073979;28;20044;-66
2023/08/29 06:00:07;;;;;;;6.78;4.45;;;12.30;99.90;;;;;;5076304;28;20032;-66
2023/08/29 06:02:32;;;;;;;7.10;4.60;;;12.30;99.90;;;;;;5060280;28;20046;-66
2023/08/29 06:04:58;;;;;;;7.20;4.65;;;12.50;99.90;;;;;;5096160;28;20039;-66
2023/08/29 06:07:24;;;;;;;6.10;3.83;;;12.60;99.90;;;;;;5077062;28;20032;-66
2023/08/29 06:09:51;;;;;;;5.63;3.92;;;12.70;99.90;;;;;;5075917;28;20477;-66
2023/08/29 06:12:16;;;;;;;8.50;4.40;;;12.90;99.90;;;;;;5095807;28;20093;-66
2023/08/29 06:14:42;;;;;;;6.10;4.60;;;13.00;99.90;;;;;;5077254;28;20459;-66
2023/08/29 06:17:08;;;;;;;9.38;6.45;;;13.00;99.90;;;;;;5076044;28;20035;-66
2023/08/29 06:19:33;;;;;;;6.43;4.50;;;13.20;99.90;;;;;;5095309;28;20040;-66
2023/08/29 06:21:59;;;;;;;6.90;4.40;;;13.30;99.90;;;;;;5076505;28;20067;-65
2023/08/29 06:24:25;;;;;;;7.28;4.40;;;13.50;99.90;;;;;;5077567;28;20092;-66
2023/08/29 06:26:50;;;;;;;7.45;4.75;;;13.60;99.90;;;;;;5077216;28;20036;-66
2023/08/29 06:29:16;;;;;;;6.95;4.25;;;13.50;99.90;;;;;;5094445;28;20070;-66
2023/08/29 06:31:42;;;;;;;7.72;4.65;;;13.70;99.90;;;;;;5059270;28;20185;-66
2023/08/29 06:34:08;;;;;;;7.13;5.20;;;13.80;99.90;;;;;;5076902;28;20397;-66
2023/08/29 06:36:33;;;;;;;6.55;4.47;;;13.90;99.90;;;;;;5076333;28;20047;-66
2023/08/29 06:39:00;;;;;;;7.57;5.10;;;14.10;99.90;;;;;;5077218;28;20036;-66
2023/08/29 06:41:26;;;;;;;8.18;5.32;;;14.20;99.90;;;;;;5094824;28;20512;-66
2023/08/29 06:43:52;;;;;;;8.27;5.78;;;14.30;99.90;;;;;;5074316;28;20125;-64
2023/08/29 06:46:17;;;;;;;7.10;5.30;;;14.40;99.90;;;;;;5094841;28;20058;-64
2023/08/29 06:48:43;;;;;;;9.80;5.95;;;14.60;99.90;;;;;;5094692;28;20048;-64
2023/08/29 06:51:09;;;;;;;8.65;5.25;;;14.60;99.90;;;;;;5075937;28;20503;-64
2023/08/29 06:53:35;;;;;;;6.63;4.57;;;14.80;99.90;;;;;;5060084;28;20051;-64
2023/08/29 06:56:01;;;;;;;5.53;4.20;;;14.80;99.90;;;;;;5059602;28;20392;-64
2023/08/29 06:58:26;;;;;;;7.05;4.40;;;14.80;99.90;;;;;;5093946;28;20127;-64
2023/08/29 07:00:53;;;;;;;7.18;6.03;;;14.90;99.90;;;;;;5059935;28;20044;-64
2023/08/29 07:03:19;;;;;;;8.15;5.40;;;15.00;99.90;;;;;;5094400;28;20385;-64
2023/08/29 07:05:45;;;;;;;7.13;4.97;;;15.10;99.90;;;;;;5093610;28;20545;-64
2023/08/29 07:08:10;;;;;;;6.93;4.40;;;15.10;99.90;;;;;;5075560;28;20048;-64
2023/08/29 07:10:36;;;;;;;6.57;5.00;;;15.10;99.90;;;;;;5075051;28;20090;-64
2023/08/29 07:13:03;;;;;;;6.57;4.90;;;15.10;99.90;;;;;;5093480;28;20036;-64
2023/08/29 07:15:30;;;;;;;6.90;5.22;;;15.20;99.90;;;;;;5058515;28;20485;-64
2023/08/29 07:17:55;;;;;;;6.05;4.40;;;15.20;99.90;;;;;;5069282;28;20139;-64
2023/08/29 07:20:21;;;;;;;8.70;5.85;;;15.20;99.90;;;;;;5090770;28;20067;-64
2023/08/29 07:22:47;;;;;;;6.43;4.93;;;15.30;99.90;;;;;;5072560;28;20036;-65
2023/08/29 07:25:13;;;;;;;9.18;5.25;;;15.30;99.90;;;;;;5072604;28;20060;-66
2023/08/29 07:27:39;;;;;;;6.43;4.82;;;15.30;99.90;;;;;;5073446;28;20036;-66
2023/08/29 07:30:06;;;;;;;6.78;5.10;;;15.40;99.90;;;;;;5072733;28;20036;-66
2023/08/29 07:32:31;;;;;;;6.38;5.07;;;15.50;99.90;;;;;;5072900;28;20439;-66
2023/08/29 07:34:57;;;;;;;7.40;4.85;;;15.60;99.90;;;;;;5092036;28;20101;-66
2023/08/29 07:37:26;;;;;;;7.28;4.55;;;15.60;99.90;;;;;;5056813;28;20116;-66
2023/08/29 07:39:51;;;;;;;9.20;5.95;;;15.70;99.90;;;;;;5052584;28;20527;-66
2023/08/29 07:42:17;;;;;;;9.68;5.57;;;15.80;99.90;;;;;;5052964;28;20048;-66
2023/08/29 07:44:43;;;;;;;5.97;4.05;;;16.00;99.90;;;;;;5071248;28;20481;-66
2023/08/29 07:47:09;;;;;;;5.22;3.90;;;16.00;99.90;;;;;;5055540;28;20100;-66
2023/08/29 07:49:35;;;;;;;7.45;3.88;;;16.00;99.90;;;;;;5056171;28;20442;-66
2023/08/29 07:52:01;;;;;;;5.30;3.55;;;16.10;99.90;;;;;;5056213;28;20059;-66
2023/08/29 07:54:27;;;;;;;15.45;14.55;;;16.20;99.90;;;;;;5071564;28;20048;-66
2023/08/29 07:56:53;;;;;;;13.60;12.77;;;16.30;99.90;;;;;;5073238;28;20055;-65
2023/08/29 07:59:19;;;;;;;15.23;14.30;;;16.40;99.90;;;;;;5072831;28;20056;-65
2023/08/29 08:01:45;;;;;;;13.85;13.00;;;16.30;99.90;;;;;;5058047;28;20400;-66
2023/08/29 08:04:11;;;;;;;8.52;6.93;;;16.50;99.90;;;;;;5055547;28;20040;-66
2023/08/29 08:06:36;;;;;;;8.82;7.35;;;16.50;99.90;;;;;;5088658;28;20050;-65
2023/08/29 08:09:04;;;;;;;8.85;8.05;;;16.60;99.90;;;;;;5089968;28;20036;-65
2023/08/29 08:11:30;;;;;;;5.60;3.67;;;16.60;99.90;;;;;;5072277;28;20108;-65
2023/08/29 08:13:57;;;;;;;7.05;6.35;;;16.60;99.90;;;;;;5090829;28;20042;-65
2023/08/29 08:16:23;;;;;;;8.65;7.95;;;16.60;99.90;;;;;;5071858;28;20051;-65
2023/08/29 08:18:48;;;;;;;6.10;5.50;;;16.70;99.90;;;;;;5071754;28;20035;-65
2023/08/29 08:21:14;;;;;;;5.68;5.07;;;16.80;99.90;;;;;;5054876;28;20047;-65
2023/08/29 08:23:39;;;;;;;6.50;5.15;;;16.70;99.90;;;;;;5054748;28;20135;-65
2023/08/29 08:26:06;;;;;;;6.47;5.97;;;16.80;99.90;;;;;;5090696;28;20468;-65
2023/08/29 08:28:31;;;;;;;4.45;2.45;;;16.90;99.90;;;;;;5089306;28;20036;-65
2023/08/29 08:30:57;;;;;;;5.10;2.75;;;17.00;99.90;;;;;;5089528;28;20143;-65
2023/08/29 08:33:24;;;;;;;4.30;2.47;;;17.00;99.90;;;;;;5071617;28;20063;-65
2023/08/29 08:35:50;;;;;;;4.82;4.15;;;17.00;99.90;;;;;;5052920;28;20044;-65
2023/08/29 08:38:16;;;;;;;5.95;4.68;;;17.10;99.90;;;;;;5084326;28;20042;-65
2023/08/29 08:40:42;;;;;;;5.82;3.92;;;17.30;99.90;;;;;;5070748;28;20118;-65
2023/08/29 08:43:09;;;;;;;7.20;6.50;;;17.20;99.90;;;;;;5052994;28;20067;-65
2023/08/29 08:45:37;;;;;;;7.40;6.45;;;17.40;99.90;;;;;;5087634;28;20449;-65
2023/08/29 08:48:04;;;;;;;4.43;3.88;;;17.40;99.90;;;;;;5071508;28;20040;-65
2023/08/29 08:50:30;;;;;;;5.53;4.18;;;17.50;99.90;;;;;;5070544;28;20044;-65
2023/08/29 08:52:57;;;;;;;3.75;2.05;;;17.50;99.90;;;;;;5054639;28;20110;-65
2023/08/29 08:55:23;;;;;;;4.35;2.20;;;17.50;99.90;;;;;;5070438;28;20559;-65
2023/08/29 08:57:50;;;;;;;8.25;4.82;;;17.70;99.90;;;;;;5070178;28;20032;-65
2023/08/29 09:00:16;;;;;;;5.45;2.92;;;17.60;99.90;;;;;;5071076;28;20043;-65
2023/08/29 09:02:44;;;;;;;6.20;5.63;;;17.70;99.90;;;;;;5067940;28;20465;-70
2023/08/29 09:05:10;;;;;;;6.13;3.67;;;17.80;99.90;;;;;;5059916;28;20123;-67
2023/08/29 09:07:39;;;;;;;5.47;2.83;;;17.90;99.90;;;;;;5070196;28;20136;-67
2023/08/29 09:10:15;;;;;;;5.55;2.47;;;17.90;99.90;;;;;;5071065;28;20113;-67
2023/08/29 09:12:55;;;;;;;5.38;2.40;;;18.00;99.90;;;;;;5069842;28;20043;-67
2023/08/29 09:15:21;;;;;;;4.68;2.30;;;18.00;99.90;;;;;;5054758;28;20076;-67
2023/08/29 09:17:53;;;;;;;6.05;2.50;;;18.00;99.90;;;;;;5087392;28;20040;-67
2023/08/29 09:20:20;;;;;;;2.80;1.30;;;18.10;99.90;;;;;;5051954;28;20044;-67
2023/08/29 09:22:46;;;;;;;5.72;2.00;;;18.10;99.90;;;;;;5066149;28;20489;-67
2023/08/29 09:25:12;;;;;;;3.67;1.50;;;18.10;99.90;;;;;;5069973;28;20043;-67
2023/08/29 09:27:43;;;;;;;3.30;1.30;;;18.00;99.90;;;;;;5070097;28;20118;-67
2023/08/29 09:30:14;;;;;;;2.83;1.30;;;18.10;99.90;;;;;;5058526;28;20075;-67
2023/08/29 09:32:43;;;;;;;4.50;1.33;;;18.00;99.90;;;;;;5084598;28;20074;-67
2023/08/29 09:35:14;;;;;;;3.85;1.52;;;18.00;99.90;;;;;;5078061;28;20090;-67
2023/08/29 09:37:45;;;;;;;2.35;1.20;;;18.10;99.90;;;;;;5095515;28;20043;-67
2023/08/29 09:40:15;;;;;;;3.88;1.65;;;18.10;99.90;;;;;;5062726;28;20385;-67
2023/08/29 09:42:41;;;;;;;4.30;1.88;;;18.10;99.90;;;;;;5076245;28;20048;-67
2023/08/29 09:45:09;;;;;;;3.17;1.75;;;18.10;99.90;;;;;;5063797;28;20070;-67
2023/08/29 09:47:35;;;;;;;4.40;2.25;;;18.20;99.90;;;;;;5070247;28;20032;-68
2023/08/29 09:50:01;;;;;;;3.67;2.10;;;18.20;99.90;;;;;;5094452;28;20101;-68
2023/08/29 09:52:28;;;;;;;3.60;1.83;;;18.20;99.90;;;;;;5077480;28;20042;-66
2023/08/29 09:54:55;;;;;;;4.40;2.00;;;18.30;99.90;;;;;;5073004;28;20052;-66
2023/08/29 09:57:24;;;;;;;3.33;1.88;;;18.30;99.90;;;;;;5074156;28;20536;-66
2023/08/29 09:59:51;;;;;;;5.45;2.65;;;18.40;99.90;;;;;;5074104;28;20381;-66
2023/08/29 10:02:20;;;;;;;4.25;2.05;;;18.50;99.90;;;;;;5073821;28;20074;-66
2023/08/29 10:05:03;;;;;;;4.70;1.80;;;18.60;99.90;;;;;;5074938;28;20036;-67
2023/08/29 10:07:37;;;;;;;4.45;1.77;;;18.70;99.90;;;;;;5072953;28;20052;-67
2023/08/29 10:10:06;;;;;;;4.20;2.03;;;18.80;99.90;;;;;;5074453;28;20045;-66
2023/08/29 10:12:33;;;;;;;3.42;1.75;;;18.80;99.90;;;;;;5073253;28;20075;-66
2023/08/29 10:15:00;;;;;;;4.20;2.00;;;18.80;99.90;;;;;;5056979;28;20419;-67
2023/08/29 10:17:26;;;;;;;4.65;2.40;;;18.90;99.90;;;;;;5074263;28;20066;-65
2023/08/29 10:19:54;;;;;;;4.90;2.63;;;19.00;99.90;;;;;;5074091;28;20119;-65
2023/08/29 10:22:23;;;;;;;5.18;2.67;;;19.00;99.90;;;;;;5073781;28;20044;-65
2023/08/29 10:24:51;;;;;;;5.15;2.38;;;19.00;99.90;;;;;;5064562;28;20044;-66
2023/08/29 10:27:17;;;;;;;4.93;2.35;;;19.10;99.90;;;;;;5057294;28;20485;-65
2023/08/29 10:29:43;;;;;;;3.70;2.05;;;19.20;99.90;;;;;;5071916;28;20032;-65
2023/08/29 10:32:09;;;;;;;3.58;2.03;;;19.10;99.90;;;;;;5074367;28;20037;-65
2023/08/29 10:34:35;;;;;;;4.10;2.15;;;19.10;99.90;;;;;;5072648;28;20037;-65
2023/08/29 10:37:03;;;;;;;4.30;2.25;;;19.20;99.90;;;;;;5073910;28;20047;-65
2023/08/29 10:39:30;;;;;;;5.03;2.08;;;19.20;99.90;;;;;;5060226;28;20086;-65
2023/08/29 10:41:56;;;;;;;5.53;2.03;;;19.20;99.90;;;;;;5036370;28;20049;-65
2023/08/29 10:44:31;;;;;;;6.10;2.47;;;19.30;99.90;;;;;;5059657;28;20397;-65
2023/08/29 10:47:23;;;;;;;4.45;2.08;;;19.40;99.90;;;;;;5056181;28;20071;-65
2023/08/29 10:50:02;;;;;;;5.13;2.75;;;19.40;99.90;;;;;;5072573;28;20366;-65
2023/08/29 10:52:37;;;;;;;5.18;1.90;;;19.40;99.90;;;;;;5074420;28;20091;-66
2023/08/29 10:55:08;;;;;;;5.47;1.80;;;19.50;99.90;;;;;;5085116;28;20123;-65
2023/08/29 10:57:34;;;;;;;3.45;1.50;;;19.60;99.90;;;;;;5059192;28;20036;-65
2023/08/29 11:00:01;;;;;;;3.95;1.95;;;19.70;99.90;;;;;;5076648;28;20484;-66
2023/08/29 11:02:32;;;;;;;4.07;1.85;;;19.60;99.90;;;;;;5076328;28;20039;-66
2023/08/29 11:05:04;;;;;;;3.95;1.90;;;19.60;99.90;;;;;;5090320;28;20054;-66
2023/08/29 11:07:31;;;;;;;4.28;2.08;;;19.60;99.90;;;;;;5076220;28;20036;-67
2023/08/29 11:10:22;;;;;;;4.78;2.67;;;19.50;99.90;;;;;;5094498;28;20082;-66
2023/08/29 11:13:08;;;;;;;3.97;1.88;;;19.50;99.90;;;;;;5076225;28;20402;-66
2023/08/29 11:15:48;;;;;;;6.50;2.28;;;19.60;99.90;;;;;;5059367;28;20040;-63
2023/08/29 11:18:32;;;;;;;4.28;2.33;;;19.60;99.90;;;;;;5075242;28;20036;-63
2023/08/29 11:21:03;;;;;;;5.47;2.75;;;19.70;99.90;;;;;;5059928;28;20107;-63
2023/08/29 11:23:34;;;;;;;5.07;2.35;;;19.80;99.90;;;;;;5058877;28;20059;-64
2023/08/29 11:25:59;;;;;;;4.32;2.20;;;19.70;99.90;;;;;;5075623;28;20185;-63
2023/08/29 11:28:25;;;;;;;5.18;2.83;;;19.80;99.90;;;;;;5093994;28;20816;-64
2023/08/29 11:30:51;;;;;;;4.88;2.92;;;19.90;99.90;;;;;;5076044;28;20128;-63
2023/08/29 11:33:16;;;;;;;5.32;2.50;;;19.90;99.90;;;;;;5093221;28;20031;-66
2023/08/29 11:35:42;;;;;;;4.32;2.35;;;20.00;99.90;;;;;;5075562;28;20046;-64
2023/08/29 11:38:08;;;;;;;4.80;2.55;;;20.00;99.90;;;;;;5093669;28;20449;-63
2023/08/29 11:40:35;;;;;;;4.32;2.10;;;20.00;99.90;;;;;;5093062;28;20043;-63
2023/08/29 11:43:01;;;;;;;12.27;3.08;;;19.90;99.90;;;;;;5075859;28;20464;-64
2023/08/29 11:45:30;;;;;;;4.93;2.85;;;19.80;99.90;;;;;;5093174;28;20031;-64
2023/08/29 11:47:59;;;;;;;4.47;2.38;;;19.80;99.90;;;;;;5059042;28;20051;-63
2023/08/29 11:50:24;;;;;;;6.45;2.17;;;19.80;99.90;;;;;;5075505;28;20039;-63
2023/08/29 11:52:50;;;;;;;6.63;2.03;;;19.70;99.90;;;;;;5092596;28;20036;-63
2023/08/29 11:55:16;;;;;;;5.90;2.40;;;19.80;99.90;;;;;;5075157;28;20048;-63
2023/08/29 11:57:45;;;;;;;4.28;1.95;;;19.80;99.90;;;;;;5074616;28;20405;-64
2023/08/29 12:00:13;;;;;;;5.50;2.40;;;19.80;99.90;;;;;;5074636;28;20043;-63
2023/08/29 12:02:40;;;;;;;6.00;1.90;;;19.80;99.90;;;;;;5093330;28;20079;-63
2023/08/29 12:05:10;;;;;;;5.00;2.30;;;19.80;99.90;;;;;;5075084;28;20044;-63
2023/08/29 12:07:36;;;;;;;5.20;2.65;;;19.80;99.90;;;;;;5074461;28;20509;-64
2023/08/29 12:10:16;;;;;;;5.20;2.42;;;19.90;99.90;;;;;;5093330;28;20115;-64
2023/08/29 12:12:42;;;;;;;4.32;2.25;;;20.10;99.90;;;;;;5075200;28;20068;-64
2023/08/29 12:15:14;;;;;;;5.18;2.65;;;20.20;99.90;;;;;;5074444;28;20040;-64
2023/08/29 12:17:41;;;;;;;13.23;3.17;;;20.20;99.90;;;;;;5074810;28;20036;-65
2023/08/29 12:20:13;;;;;;;5.15;2.53;;;20.20;99.90;;;;;;5074894;28;20044;-66
2023/08/29 12:22:42;;;;;;;4.50;1.88;;;20.30;99.90;;;;;;5073952;28;20397;-66
2023/08/29 12:25:09;;;;;;;4.35;2.05;;;20.20;99.90;;;;;;5074794;28;20066;-66
2023/08/29 12:27:35;;;;;;;5.10;2.25;;;20.40;99.90;;;;;;5092111;28;20543;-68
2023/08/29 12:30:01;;;;;;;4.85;2.28;;;20.40;99.90;;;;;;5074901;28;20435;-66
2023/08/29 12:32:28;;;;;;;6.25;2.40;;;20.50;99.90;;;;;;5074995;28;20040;-63
2023/08/29 12:34:57;;;;;;;5.75;2.33;;;20.60;99.90;;;;;;5073987;28;20465;-63
2023/08/29 12:37:23;;;;;;;4.80;1.98;;;20.70;99.90;;;;;;5092721;28;20589;-63
2023/08/29 12:39:49;;;;;;;5.50;2.42;;;20.70;99.90;;;;;;5074621;28;20116;-64
2023/08/29 12:42:16;;;;;;;3.78;1.90;;;20.70;99.90;;;;;;5073720;28;20119;-63
2023/08/29 12:44:42;;;;;;;4.28;1.95;;;20.60;99.90;;;;;;5074562;28;20039;-63